createdAt,value
2019-04-22T00:11:03.215Z,10.82
2019-04-22T00:41:06.875Z,9.13
2019-04-22T01:11:12.052Z,8.60
2019-04-22T01:41:15.992Z,8.95
2019-04-22T02:11:29.321Z,10.25
2019-04-22T02:41:41.026Z,14.07
2019-04-22T03:42:05.161Z,17.27
2019-04-22T04:12:01.967Z,17.23
2019-04-22T04:42:08.811Z,16.40
2019-04-22T05:12:14.824Z,12.40
2019-04-22T05:42:03.661Z,8.83
2019-04-22T06:11:58.961Z,7.65
2019-04-22T06:42:19.253Z,6.65
2019-04-22T07:12:18.674Z,5.25
2019-04-22T07:42:24.522Z,4.85
2019-04-22T08:12:34.918Z,5.42
2019-04-22T08:42:43.515Z,4.55
2019-04-22T09:12:51.997Z,5.25
2019-04-22T10:12:46.742Z,9.10
2019-04-22T10:42:33.596Z,11.38
2019-04-22T11:12:38.067Z,17.07
2019-04-22T11:42:43.902Z,18.67
2019-04-22T12:12:49.628Z,17.77
2019-04-22T12:42:55.315Z,18.40
2019-04-22T13:13:00.747Z,17.85
2019-04-22T13:43:05.100Z,15.15
2019-04-22T14:13:09.913Z,10.75
2019-04-22T14:43:44.910Z,6.15
2019-04-22T15:13:21.096Z,3.80
2019-04-22T15:43:28.917Z,3.85
2019-04-22T16:13:33.944Z,4.17
2019-04-22T16:43:36.573Z,4.28
2019-04-22T17:13:42.479Z,5.70
2019-04-22T17:44:13.599Z,6.45
2019-04-22T18:14:31.576Z,7.60
2019-04-22T18:44:22.765Z,9.80
2019-04-22T19:14:24.203Z,10.08
2019-04-22T19:44:36.387Z,11.25
2019-04-22T20:14:35.831Z,9.85
2019-04-22T20:44:50.459Z,10.38
2019-04-22T21:14:53.276Z,11.33
2019-04-22T21:44:49.998Z,10.88
2019-04-22T22:14:57.670Z,10.70
2019-04-22T22:44:48.113Z,17.55
2019-04-22T23:15:04.701Z,10.25
2019-04-22T23:45:19.194Z,9.55
